NCAR-RAP Real-Time Weather Data

Output produced by METARs form (08 May 2021  15:29 UTC)
found at http://weather.rap.ucar.edu/surface/
 
KTRM 081452Z AUTO 33009KT 10SM CLR 23/08 A2981 RMK AO2 SLP097 T02280083 51024
KTRM 081352Z AUTO 34011KT 10SM CLR 21/08 A2979 RMK AO2 SLP090 T02060083
KTRM 081252Z AUTO 35006KT 10SM CLR 20/08 A2976 RMK AO2 SLP081 T02000083
KTRM 081152Z AUTO 32010KT 10SM CLR 21/08 A2974 RMK AO2 SLP072 T02060083 10256 20200 53009
KTRM 081052Z AUTO 32013G22KT 10SM CLR 21/09 A2972 RMK AO2 SLP066 T02110089
KTRM 080952Z AUTO 31012KT 10SM CLR 22/08 A2971 RMK AO2 SLP063 T02220078
KTRM 080852Z AUTO 31011G20KT 10SM CLR 22/07 A2971 RMK AO2 SLP064 T02220072 55004
KTRM 080752Z AUTO 33020G25KT 10SM CLR 24/06 A2971 RMK AO2 SLP062 T02440061 403560139
KTRM 080652Z AUTO 33013KT 10SM CLR 24/08 A2972 RMK AO2 SLP066 T02440078
KTRM 080552Z AUTO 33012KT 10SM CLR 25/08 A2972 RMK AO2 SLP068 T02500083 10356 20250 51012
KTRM 080452Z AUTO 34015G21KT 10SM CLR 27/08 A2972 RMK AO2 SLP067 T02670083
KTRM 080352Z AUTO 34019G24KT 10SM CLR 28/08 A2971 RMK AO2 PK WND 33028/0322 SLP062 T02780078
KTRM 080252Z AUTO 34014KT 10SM CLR 30/06 A2969 RMK AO2 SLP055 T03000061 55003